sensor_id;sensor_type;location;lat;lon;timestamp;temperature;humidity
11091;DHT22;5599;52.210;21.046;2024-02-14T00:01:34;6.80;1.00
11091;DHT22;5599;52.210;21.046;2024-02-14T00:04:04;6.80;1.00
11091;DHT22;5599;52.210;21.046;2024-02-14T00:06:35;6.80;1.00
11091;DHT22;5599;52.210;21.046;2024-02-14T00:09:06;6.80;1.00
11091;DHT22;5599;52.210;21.046;2024-02-14T00:11:35;6.80;25.50
11091;DHT22;5599;52.210;21.046;2024-02-14T00:14:04;6.70;99.90
11091;DHT22;5599;52.210;21.046;2024-02-14T00:16:34;6.70;99.90
11091;DHT22;5599;52.210;21.046;2024-02-14T00:19:03;6.70;99.90
11091;DHT22;5599;52.210;21.046;2024-02-14T00:21:33;6.70;99.90
11091;DHT22;5599;52.210;21.046;2024-02-14T00:24:03;6.70;1.00
11091;DHT22;5599;52.210;21.046;2024-02-14T00:26:35;6.70;1.00
11091;DHT22;5599;52.210;21.046;2024-02-14T00:29:05;6.70;50.60
11091;DHT22;5599;52.210;21.046;2024-02-14T00:31:33;6.70;99.90
11091;DHT22;5599;52.210;21.046;2024-02-14T00:34:13;6.70;15.50
11091;DHT22;5599;52.210;21.046;2024-02-14T00:36:42;6.70;1.00
11091;DHT22;5599;52.210;21.046;2024-02-14T00:39:11;6.70;23.10
11091;DHT22;5599;52.210;21.046;2024-02-14T00:41:41;6.60;44.80
11091;DHT22;5599;52.210;21.046;2024-02-14T00:44:10;6.60;1.00
11091;DHT22;5599;52.210;21.046;2024-02-14T00:46:39;6.60;1.00
11091;DHT22;5599;52.210;21.046;2024-02-14T00:49:08;6.60;1.00
11091;DHT22;5599;52.210;21.046;2024-02-14T00:51:37;6.60;1.00
11091;DHT22;5599;52.210;21.046;2024-02-14T00:54:07;6.50;1.00
11091;DHT22;5599;52.210;21.046;2024-02-14T00:56:36;6.50;1.00
11091;DHT22;5599;52.210;21.046;2024-02-14T00:59:06;6.50;99.90
11091;DHT22;5599;52.210;21.046;2024-02-14T01:01:35;6.50;99.90
11091;DHT22;5599;52.210;21.046;2024-02-14T01:04:04;6.50;99.90
11091;DHT22;5599;52.210;21.046;2024-02-14T01:06:33;6.50;1.00
11091;DHT22;5599;52.210;21.046;2024-02-14T01:09:02;6.50;99.90
11091;DHT22;5599;52.210;21.046;2024-02-14T01:11:31;6.60;99.90
11091;DHT22;5599;52.210;21.046;2024-02-14T01:14:00;6.60;99.90
11091;DHT22;5599;52.210;21.046;2024-02-14T01:16:30;6.60;1.00
11091;DHT22;5599;52.210;21.046;2024-02-14T01:18:59;6.60;1.00
11091;DHT22;5599;52.210;21.046;2024-02-14T01:21:28;6.60;1.00
11091;DHT22;5599;52.210;21.046;2024-02-14T01:23:57;6.50;1.00
11091;DHT22;5599;52.210;21.046;2024-02-14T01:26:26;6.50;1.00
11091;DHT22;5599;52.210;21.046;2024-02-14T01:28:55;6.60;1.00
11091;DHT22;5599;52.210;21.046;2024-02-14T01:31:24;6.50;99.90
11091;DHT22;5599;52.210;21.046;2024-02-14T01:33:54;6.40;1.00
11091;DHT22;5599;52.210;21.046;2024-02-14T01:36:23;6.40;99.90
11091;DHT22;5599;52.210;21.046;2024-02-14T01:38:52;6.40;99.90
11091;DHT22;5599;52.210;21.046;2024-02-14T01:41:21;6.40;1.00
11091;DHT22;5599;52.210;21.046;2024-02-14T01:43:50;6.30;1.00
11091;DHT22;5599;52.210;21.046;2024-02-14T01:46:19;6.20;1.00
11091;DHT22;5599;52.210;21.046;2024-02-14T01:48:55;6.30;99.90
11091;DHT22;5599;52.210;21.046;2024-02-14T01:51:25;6.20;99.90
11091;DHT22;5599;52.210;21.046;2024-02-14T01:53:54;6.10;1.00
11091;DHT22;5599;52.210;21.046;2024-02-14T01:56:23;6.10;1.00
11091;DHT22;5599;52.210;21.046;2024-02-14T01:58:53;6.10;99.90
11091;DHT22;5599;52.210;21.046;2024-02-14T02:01:22;6.00;99.90
11091;DHT22;5599;52.210;21.046;2024-02-14T02:03:51;6.00;99.90
11091;DHT22;5599;52.210;21.046;2024-02-14T02:06:21;5.90;99.90
11091;DHT22;5599;52.210;21.046;2024-02-14T02:08:50;5.90;1.00
11091;DHT22;5599;52.210;21.046;2024-02-14T02:11:19;5.80;82.70
11091;DHT22;5599;52.210;21.046;2024-02-14T02:14:09;5.70;99.90
11091;DHT22;5599;52.210;21.046;2024-02-14T02:16:57;5.70;99.90
11091;DHT22;5599;52.210;21.046;2024-02-14T02:19:46;5.70;1.00
11091;DHT22;5599;52.210;21.046;2024-02-14T02:22:35;5.70;1.00
11091;DHT22;5599;52.210;21.046;2024-02-14T02:25:26;5.60;99.90
11091;DHT22;5599;52.210;21.046;2024-02-14T02:28:14;5.50;99.90
11091;DHT22;5599;52.210;21.046;2024-02-14T02:30:45;5.50;99.90
11091;DHT22;5599;52.210;21.046;2024-02-14T02:33:14;5.50;99.90
11091;DHT22;5599;52.210;21.046;2024-02-14T02:35:43;5.40;1.00
11091;DHT22;5599;52.210;21.046;2024-02-14T02:38:32;5.40;1.00
11091;DHT22;5599;52.210;21.046;2024-02-14T02:41:23;5.40;1.00
11091;DHT22;5599;52.210;21.046;2024-02-14T02:44:11;5.40;1.00
11091;DHT22;5599;52.210;21.046;2024-02-14T02:47:03;5.30;1.00
11091;DHT22;5599;52.210;21.046;2024-02-14T02:49:52;5.30;1.00
11091;DHT22;5599;52.210;21.046;2024-02-14T02:52:27;5.20;1.00
11091;DHT22;5599;52.210;21.046;2024-02-14T02:55:16;5.20;1.00
11091;DHT22;5599;52.210;21.046;2024-02-14T02:57:49;5.20;1.00
11091;DHT22;5599;52.210;21.046;2024-02-14T03:00:19;5.20;9.80
11091;DHT22;5599;52.210;21.046;2024-02-14T03:03:07;5.10;1.00
11091;DHT22;5599;52.210;21.046;2024-02-14T03:05:54;5.10;1.00
11091;DHT22;5599;52.210;21.046;2024-02-14T03:08:42;5.10;26.30
11091;DHT22;5599;52.210;21.046;2024-02-14T03:11:31;5.10;99.90
11091;DHT22;5599;52.210;21.046;2024-02-14T03:14:21;5.10;97.60
11091;DHT22;5599;52.210;21.046;2024-02-14T03:17:10;5.00;99.90
11091;DHT22;5599;52.210;21.046;2024-02-14T03:19:40;5.00;99.90
11091;DHT22;5599;52.210;21.046;2024-02-14T03:22:09;4.90;99.90
11091;DHT22;5599;52.210;21.046;2024-02-14T03:24:38;4.90;99.90
11091;DHT22;5599;52.210;21.046;2024-02-14T03:27:06;4.90;99.90
11091;DHT22;5599;52.210;21.046;2024-02-14T03:29:37;5.00;99.90
11091;DHT22;5599;52.210;21.046;2024-02-14T03:32:06;5.00;99.90
11091;DHT22;5599;52.210;21.046;2024-02-14T03:34:36;4.90;99.90
11091;DHT22;5599;52.210;21.046;2024-02-14T03:37:05;4.90;99.90
11091;DHT22;5599;52.210;21.046;2024-02-14T03:39:34;4.90;99.90
11091;DHT22;5599;52.210;21.046;2024-02-14T03:42:04;4.90;99.90
11091;DHT22;5599;52.210;21.046;2024-02-14T03:44:36;4.80;99.90
11091;DHT22;5599;52.210;21.046;2024-02-14T03:47:05;4.80;99.90
11091;DHT22;5599;52.210;21.046;2024-02-14T03:49:34;4.80;99.90
11091;DHT22;5599;52.210;21.046;2024-02-14T03:52:04;4.80;99.90
11091;DHT22;5599;52.210;21.046;2024-02-14T03:54:37;4.80;99.90
11091;DHT22;5599;52.210;21.046;2024-02-14T03:57:06;4.90;99.90
11091;DHT22;5599;52.210;21.046;2024-02-14T03:59:38;4.90;99.90
11091;DHT22;5599;52.210;21.046;2024-02-14T04:02:07;4.90;99.90
11091;DHT22;5599;52.210;21.046;2024-02-14T04:04:37;4.90;99.90
11091;DHT22;5599;52.210;21.046;2024-02-14T04:07:07;4.90;99.90
11091;DHT22;5599;52.210;21.046;2024-02-14T04:09:37;4.90;1.00
11091;DHT22;5599;52.210;21.046;2024-02-14T04:12:06;5.00;99.90
11091;DHT22;5599;52.210;21.046;2024-02-14T04:14:38;4.90;99.90
11091;DHT22;5599;52.210;21.046;2024-02-14T04:17:08;4.90;99.90
11091;DHT22;5599;52.210;21.046;2024-02-14T04:19:38;4.90;99.90
11091;DHT22;5599;52.210;21.046;2024-02-14T04:22:07;4.80;99.90
11091;DHT22;5599;52.210;21.046;2024-02-14T04:24:36;4.80;99.90
11091;DHT22;5599;52.210;21.046;2024-02-14T04:27:05;4.80;1.00
11091;DHT22;5599;52.210;21.046;2024-02-14T04:29:34;4.80;99.90
11091;DHT22;5599;52.210;21.046;2024-02-14T04:32:05;4.80;1.00
11091;DHT22;5599;52.210;21.046;2024-02-14T04:34:34;4.80;1.00
11091;DHT22;5599;52.210;21.046;2024-02-14T04:37:06;4.80;1.00
11091;DHT22;5599;52.210;21.046;2024-02-14T04:39:40;4.70;1.00
11091;DHT22;5599;52.210;21.046;2024-02-14T04:42:09;4.70;1.00
11091;DHT22;5599;52.210;21.046;2024-02-14T04:44:38;4.70;1.00
11091;DHT22;5599;52.210;21.046;2024-02-14T04:47:09;4.60;1.00
11091;DHT22;5599;52.210;21.046;2024-02-14T04:49:38;4.60;99.90
11091;DHT22;5599;52.210;21.046;2024-02-14T04:52:08;4.60;99.90
11091;DHT22;5599;52.210;21.046;2024-02-14T04:54:36;4.50;1.00
11091;DHT22;5599;52.210;21.046;2024-02-14T04:57:06;4.50;1.00
11091;DHT22;5599;52.210;21.046;2024-02-14T04:59:35;4.50;1.00
11091;DHT22;5599;52.210;21.046;2024-02-14T05:02:04;4.40;1.00
11091;DHT22;5599;52.210;21.046;2024-02-14T05:04:34;4.50;1.00
11091;DHT22;5599;52.210;21.046;2024-02-14T05:07:05;4.50;1.00
11091;DHT22;5599;52.210;21.046;2024-02-14T05:09:35;4.50;1.00
11091;DHT22;5599;52.210;21.046;2024-02-14T05:12:04;4.50;1.00
11091;DHT22;5599;52.210;21.046;2024-02-14T05:14:38;4.40;1.00
11091;DHT22;5599;52.210;21.046;2024-02-14T05:17:08;4.40;1.00
11091;DHT22;5599;52.210;21.046;2024-02-14T05:19:38;4.40;1.00
11091;DHT22;5599;52.210;21.046;2024-02-14T05:22:07;4.50;1.00
11091;DHT22;5599;52.210;21.046;2024-02-14T05:24:36;4.50;1.00
11091;DHT22;5599;52.210;21.046;2024-02-14T05:27:05;4.30;1.00
11091;DHT22;5599;52.210;21.046;2024-02-14T05:29:34;4.30;1.00
11091;DHT22;5599;52.210;21.046;2024-02-14T05:32:04;4.30;1.00
11091;DHT22;5599;52.210;21.046;2024-02-14T05:34:33;4.30;1.00
11091;DHT22;5599;52.210;21.046;2024-02-14T05:37:04;4.30;1.00
11091;DHT22;5599;52.210;21.046;2024-02-14T05:39:34;4.30;1.00
11091;DHT22;5599;52.210;21.046;2024-02-14T05:42:03;4.30;1.00
11091;DHT22;5599;52.210;21.046;2024-02-14T05:44:33;4.30;1.00
11091;DHT22;5599;52.210;21.046;2024-02-14T05:47:02;4.30;1.00
11091;DHT22;5599;52.210;21.046;2024-02-14T05:49:31;4.30;1.00
11091;DHT22;5599;52.210;21.046;2024-02-14T05:52:00;4.40;1.00
11091;DHT22;5599;52.210;21.046;2024-02-14T05:54:30;4.40;1.00
11091;DHT22;5599;52.210;21.046;2024-02-14T05:56:59;4.40;1.00
11091;DHT22;5599;52.210;21.046;2024-02-14T05:59:28;4.40;1.00
11091;DHT22;5599;52.210;21.046;2024-02-14T06:01:58;4.50;1.00
11091;DHT22;5599;52.210;21.046;2024-02-14T06:04:26;4.60;1.00
11091;DHT22;5599;52.210;21.046;2024-02-14T06:06:55;4.60;1.00
11091;DHT22;5599;52.210;21.046;2024-02-14T06:09:24;4.60;99.90
11091;DHT22;5599;52.210;21.046;2024-02-14T06:11:55;4.60;1.00
11091;DHT22;5599;52.210;21.046;2024-02-14T06:14:24;4.70;99.90
11091;DHT22;5599;52.210;21.046;2024-02-14T06:16:53;4.80;99.90
11091;DHT22;5599;52.210;21.046;2024-02-14T06:19:22;4.90;99.90
11091;DHT22;5599;52.210;21.046;2024-02-14T06:21:51;5.00;99.90
11091;DHT22;5599;52.210;21.046;2024-02-14T06:24:19;5.00;99.90
11091;DHT22;5599;52.210;21.046;2024-02-14T06:26:48;5.20;99.90
11091;DHT22;5599;52.210;21.046;2024-02-14T06:29:19;5.30;99.90
11091;DHT22;5599;52.210;21.046;2024-02-14T06:31:49;5.40;99.90
11091;DHT22;5599;52.210;21.046;2024-02-14T06:34:18;5.60;99.90
11091;DHT22;5599;52.210;21.046;2024-02-14T06:36:47;5.70;1.00
11091;DHT22;5599;52.210;21.046;2024-02-14T06:39:16;5.80;1.00
11091;DHT22;5599;52.210;21.046;2024-02-14T06:41:45;5.90;99.90
11091;DHT22;5599;52.210;21.046;2024-02-14T06:44:15;5.90;1.00
11091;DHT22;5599;52.210;21.046;2024-02-14T06:46:47;6.00;1.00
11091;DHT22;5599;52.210;21.046;2024-02-14T06:49:16;6.00;99.90
11091;DHT22;5599;52.210;21.046;2024-02-14T06:51:45;6.10;99.90
11091;DHT22;5599;52.210;21.046;2024-02-14T06:54:14;6.30;1.00
11091;DHT22;5599;52.210;21.046;2024-02-14T06:56:44;6.30;99.90
11091;DHT22;5599;52.210;21.046;2024-02-14T06:59:13;6.30;1.00
11091;DHT22;5599;52.210;21.046;2024-02-14T07:01:42;6.40;99.90
11091;DHT22;5599;52.210;21.046;2024-02-14T07:04:12;6.50;1.00
11091;DHT22;5599;52.210;21.046;2024-02-14T07:06:42;6.70;99.90
11091;DHT22;5599;52.210;21.046;2024-02-14T07:09:11;6.80;37.70
11091;DHT22;5599;52.210;21.046;2024-02-14T07:11:40;6.90;1.00
11091;DHT22;5599;52.210;21.046;2024-02-14T07:14:09;7.10;1.00
11091;DHT22;5599;52.210;21.046;2024-02-14T07:16:38;7.50;84.20
11091;DHT22;5599;52.210;21.046;2024-02-14T07:19:07;7.70;99.90
11091;DHT22;5599;52.210;21.046;2024-02-14T07:21:38;8.20;1.00
11091;DHT22;5599;52.210;21.046;2024-02-14T07:24:07;8.50;1.00
11091;DHT22;5599;52.210;21.046;2024-02-14T07:26:36;8.90;1.00
11091;DHT22;5599;52.210;21.046;2024-02-14T07:29:07;9.30;1.00
11091;DHT22;5599;52.210;21.046;2024-02-14T07:31:36;9.60;99.90
11091;DHT22;5599;52.210;21.046;2024-02-14T07:34:05;9.90;99.90
11091;DHT22;5599;52.210;21.046;2024-02-14T07:36:38;10.20;1.00
11091;DHT22;5599;52.210;21.046;2024-02-14T07:39:08;10.70;1.00
11091;DHT22;5599;52.210;21.046;2024-02-14T07:41:38;11.10;99.90
11091;DHT22;5599;52.210;21.046;2024-02-14T07:44:07;11.40;99.90
11091;DHT22;5599;52.210;21.046;2024-02-14T07:46:36;11.70;99.90
11091;DHT22;5599;52.210;21.046;2024-02-14T07:49:05;12.00;99.90
11091;DHT22;5599;52.210;21.046;2024-02-14T07:51:34;12.10;99.90
11091;DHT22;5599;52.210;21.046;2024-02-14T07:54:06;12.40;99.90
11091;DHT22;5599;52.210;21.046;2024-02-14T07:56:35;12.70;1.00
11091;DHT22;5599;52.210;21.046;2024-02-14T07:59:04;12.80;1.00
11091;DHT22;5599;52.210;21.046;2024-02-14T08:01:33;13.20;1.00
11091;DHT22;5599;52.210;21.046;2024-02-14T08:04:02;13.50;1.00
11091;DHT22;5599;52.210;21.046;2024-02-14T08:06:32;13.80;77.30
11091;DHT22;5599;52.210;21.046;2024-02-14T08:09:02;14.10;1.00
11091;DHT22;5599;52.210;21.046;2024-02-14T08:11:35;14.30;1.00
11091;DHT22;5599;52.210;21.046;2024-02-14T08:14:04;14.40;99.90
11091;DHT22;5599;52.210;21.046;2024-02-14T08:16:33;14.50;99.30
11091;DHT22;5599;52.210;21.046;2024-02-14T08:19:03;14.70;34.40
11091;DHT22;5599;52.210;21.046;2024-02-14T08:21:32;14.60;99.90
11091;DHT22;5599;52.210;21.046;2024-02-14T08:24:01;14.80;81.40
11091;DHT22;5599;52.210;21.046;2024-02-14T08:26:30;14.90;99.90
11091;DHT22;5599;52.210;21.046;2024-02-14T08:29:01;15.10;99.90
11091;DHT22;5599;52.210;21.046;2024-02-14T08:31:31;15.40;99.90
11091;DHT22;5599;52.210;21.046;2024-02-14T08:34:00;15.50;1.00
11091;DHT22;5599;52.210;21.046;2024-02-14T08:36:29;15.70;30.50
11091;DHT22;5599;52.210;21.046;2024-02-14T08:38:58;15.80;1.00
11091;DHT22;5599;52.210;21.046;2024-02-14T08:41:27;15.90;1.00
11091;DHT22;5599;52.210;21.046;2024-02-14T08:43:57;16.00;1.00
11091;DHT22;5599;52.210;21.046;2024-02-14T08:46:27;16.20;1.00
11091;DHT22;5599;52.210;21.046;2024-02-14T08:48:56;16.20;1.00
11091;DHT22;5599;52.210;21.046;2024-02-14T08:51:27;16.30;1.00
11091;DHT22;5599;52.210;21.046;2024-02-14T08:53:56;16.40;99.90
11091;DHT22;5599;52.210;21.046;2024-02-14T08:56:27;16.70;99.90
11091;DHT22;5599;52.210;21.046;2024-02-14T08:58:56;16.70;99.90
11091;DHT22;5599;52.210;21.046;2024-02-14T09:01:24;16.70;99.90
11091;DHT22;5599;52.210;21.046;2024-02-14T09:03:55;16.60;1.00
11091;DHT22;5599;52.210;21.046;2024-02-14T09:06:24;16.70;99.90
11091;DHT22;5599;52.210;21.046;2024-02-14T09:08:54;16.60;1.00
11091;DHT22;5599;52.210;21.046;2024-02-14T09:11:23;16.50;99.90
11091;DHT22;5599;52.210;21.046;2024-02-14T09:13:53;16.40;99.90
11091;DHT22;5599;52.210;21.046;2024-02-14T09:16:26;16.30;6.60
11091;DHT22;5599;52.210;21.046;2024-02-14T09:18:57;16.10;99.90
11091;DHT22;5599;52.210;21.046;2024-02-14T09:21:26;16.00;1.00
11091;DHT22;5599;52.210;21.046;2024-02-14T09:23:56;16.10;99.90
11091;DHT22;5599;52.210;21.046;2024-02-14T09:26:26;15.90;1.00
11091;DHT22;5599;52.210;21.046;2024-02-14T09:28:56;15.80;1.00
11091;DHT22;5599;52.210;21.046;2024-02-14T09:31:25;15.60;1.00
11091;DHT22;5599;52.210;21.046;2024-02-14T09:33:54;15.30;99.90
11091;DHT22;5599;52.210;21.046;2024-02-14T09:36:27;14.90;99.90
11091;DHT22;5599;52.210;21.046;2024-02-14T09:38:56;14.60;1.00
11091;DHT22;5599;52.210;21.046;2024-02-14T09:41:31;14.50;99.90
11091;DHT22;5599;52.210;21.046;2024-02-14T09:44:02;14.40;99.90
11091;DHT22;5599;52.210;21.046;2024-02-14T09:46:32;14.40;1.70
11091;DHT22;5599;52.210;21.046;2024-02-14T09:49:04;14.20;1.00
11091;DHT22;5599;52.210;21.046;2024-02-14T09:51:36;14.10;36.60
11091;DHT22;5599;52.210;21.046;2024-02-14T09:54:07;14.10;99.90
11091;DHT22;5599;52.210;21.046;2024-02-14T09:56:48;14.20;1.00
11091;DHT22;5599;52.210;21.046;2024-02-14T09:59:22;14.20;75.00
11091;DHT22;5599;52.210;21.046;2024-02-14T10:01:50;14.20;99.90
11091;DHT22;5599;52.210;21.046;2024-02-14T10:04:20;14.20;1.00
11091;DHT22;5599;52.210;21.046;2024-02-14T10:06:54;14.20;1.00
11091;DHT22;5599;52.210;21.046;2024-02-14T10:09:25;14.10;1.00
11091;DHT22;5599;52.210;21.046;2024-02-14T10:11:54;14.00;99.90
11091;DHT22;5599;52.210;21.046;2024-02-14T10:14:25;13.90;48.80
11091;DHT22;5599;52.210;21.046;2024-02-14T10:16:53;13.80;99.90
11091;DHT22;5599;52.210;21.046;2024-02-14T10:19:22;13.80;99.90
11091;DHT22;5599;52.210;21.046;2024-02-14T10:21:57;13.80;20.00
11091;DHT22;5599;52.210;21.046;2024-02-14T10:24:26;13.80;1.00
11091;DHT22;5599;52.210;21.046;2024-02-14T10:26:55;13.80;99.90
11091;DHT22;5599;52.210;21.046;2024-02-14T10:29:25;13.70;99.90
11091;DHT22;5599;52.210;21.046;2024-02-14T10:31:54;13.60;99.90
11091;DHT22;5599;52.210;21.046;2024-02-14T10:34:25;13.60;99.90
11091;DHT22;5599;52.210;21.046;2024-02-14T10:36:57;13.50;99.90
11091;DHT22;5599;52.210;21.046;2024-02-14T10:39:29;13.40;1.00
11091;DHT22;5599;52.210;21.046;2024-02-14T10:41:59;13.30;99.90
11091;DHT22;5599;52.210;21.046;2024-02-14T10:44:29;13.40;99.90
11091;DHT22;5599;52.210;21.046;2024-02-14T10:47:00;13.40;99.90
11091;DHT22;5599;52.210;21.046;2024-02-14T10:49:31;13.30;99.90
11091;DHT22;5599;52.210;21.046;2024-02-14T10:52:05;13.10;99.90
11091;DHT22;5599;52.210;21.046;2024-02-14T10:54:35;13.10;54.40
11091;DHT22;5599;52.210;21.046;2024-02-14T10:57:06;13.20;99.90
11091;DHT22;5599;52.210;21.046;2024-02-14T10:59:43;13.30;99.90
11091;DHT22;5599;52.210;21.046;2024-02-14T11:02:13;13.30;99.90
11091;DHT22;5599;52.210;21.046;2024-02-14T11:04:43;13.40;99.90
11091;DHT22;5599;52.210;21.046;2024-02-14T11:07:13;13.30;99.90
11091;DHT22;5599;52.210;21.046;2024-02-14T11:09:46;13.30;99.90
11091;DHT22;5599;52.210;21.046;2024-02-14T11:12:15;13.30;99.90
11091;DHT22;5599;52.210;21.046;2024-02-14T11:14:44;13.30;99.90
11091;DHT22;5599;52.210;21.046;2024-02-14T11:17:13;13.40;99.90
11091;DHT22;5599;52.210;21.046;2024-02-14T11:19:42;13.30;48.40
11091;DHT22;5599;52.210;21.046;2024-02-14T11:22:18;13.20;99.90
11091;DHT22;5599;52.210;21.046;2024-02-14T11:24:48;13.20;1.00
11091;DHT22;5599;52.210;21.046;2024-02-14T11:27:18;13.20;1.00
11091;DHT22;5599;52.210;21.046;2024-02-14T11:30:00;13.20;1.00
11091;DHT22;5599;52.210;21.046;2024-02-14T11:32:32;13.10;1.00
11091;DHT22;5599;52.210;21.046;2024-02-14T11:35:01;13.00;99.90
11091;DHT22;5599;52.210;21.046;2024-02-14T11:37:35;12.90;1.00
11091;DHT22;5599;52.210;21.046;2024-02-14T11:40:05;12.80;99.90
11091;DHT22;5599;52.210;21.046;2024-02-14T11:42:34;12.60;99.90
11091;DHT22;5599;52.210;21.046;2024-02-14T11:45:06;12.60;98.50
11091;DHT22;5599;52.210;21.046;2024-02-14T11:47:37;12.60;1.00
11091;DHT22;5599;52.210;21.046;2024-02-14T11:50:08;12.80;99.90
11091;DHT22;5599;52.210;21.046;2024-02-14T11:52:39;12.80;99.90
11091;DHT22;5599;52.210;21.046;2024-02-14T11:55:09;12.80;99.90
11091;DHT22;5599;52.210;21.046;2024-02-14T11:57:38;12.80;26.60
11091;DHT22;5599;52.210;21.046;2024-02-14T12:00:08;12.80;99.90
11091;DHT22;5599;52.210;21.046;2024-02-14T12:02:49;12.80;99.90
11091;DHT22;5599;52.210;21.046;2024-02-14T12:05:18;12.80;99.90
11091;DHT22;5599;52.210;21.046;2024-02-14T12:07:49;12.90;3.20
11091;DHT22;5599;52.210;21.046;2024-02-14T12:10:20;12.70;99.90
11091;DHT22;5599;52.210;21.046;2024-02-14T12:12:49;12.70;1.00
11091;DHT22;5599;52.210;21.046;2024-02-14T12:15:18;12.40;1.00
11091;DHT22;5599;52.210;21.046;2024-02-14T12:17:47;12.40;1.00
11091;DHT22;5599;52.210;21.046;2024-02-14T12:20:22;12.30;1.00
11091;DHT22;5599;52.210;21.046;2024-02-14T12:22:52;12.20;1.00
11091;DHT22;5599;52.210;21.046;2024-02-14T12:25:21;12.20;1.00
11091;DHT22;5599;52.210;21.046;2024-02-14T12:27:50;12.20;1.00
11091;DHT22;5599;52.210;21.046;2024-02-14T12:30:20;12.10;99.90
11091;DHT22;5599;52.210;21.046;2024-02-14T12:33:00;12.20;99.90
11091;DHT22;5599;52.210;21.046;2024-02-14T12:35:35;12.20;59.50
11091;DHT22;5599;52.210;21.046;2024-02-14T12:38:11;12.30;91.60
11091;DHT22;5599;52.210;21.046;2024-02-14T12:40:40;12.20;99.90
11091;DHT22;5599;52.210;21.046;2024-02-14T12:43:10;12.30;99.90
11091;DHT22;5599;52.210;21.046;2024-02-14T12:45:39;12.20;99.90
11091;DHT22;5599;52.210;21.046;2024-02-14T12:48:11;12.10;12.60
11091;DHT22;5599;52.210;21.046;2024-02-14T12:50:41;12.10;99.90
11091;DHT22;5599;52.210;21.046;2024-02-14T12:53:18;12.10;99.90
11091;DHT22;5599;52.210;21.046;2024-02-14T12:55:47;12.10;99.90
11091;DHT22;5599;52.210;21.046;2024-02-14T12:58:16;12.20;54.60
11091;DHT22;5599;52.210;21.046;2024-02-14T13:00:45;12.10;1.00
11091;DHT22;5599;52.210;21.046;2024-02-14T13:03:15;12.00;1.00
11091;DHT22;5599;52.210;21.046;2024-02-14T13:05:47;12.00;1.00
11091;DHT22;5599;52.210;21.046;2024-02-14T13:08:17;12.00;99.90
11091;DHT22;5599;52.210;21.046;2024-02-14T13:10:46;12.10;71.50
11091;DHT22;5599;52.210;21.046;2024-02-14T13:13:16;12.10;99.90
11091;DHT22;5599;52.210;21.046;2024-02-14T13:15:45;12.00;99.90
11091;DHT22;5599;52.210;21.046;2024-02-14T13:18:14;12.00;1.00
11091;DHT22;5599;52.210;21.046;2024-02-14T13:20:44;11.90;99.90
11091;DHT22;5599;52.210;21.046;2024-02-14T13:23:13;11.80;99.90
11091;DHT22;5599;52.210;21.046;2024-02-14T13:25:45;11.70;99.90
11091;DHT22;5599;52.210;21.046;2024-02-14T13:28:14;11.70;99.90
11091;DHT22;5599;52.210;21.046;2024-02-14T13:33:14;11.50;17.60
11091;DHT22;5599;52.210;21.046;2024-02-14T13:35:43;11.50;99.90
11091;DHT22;5599;52.210;21.046;2024-02-14T13:38:12;11.50;99.90
11091;DHT22;5599;52.210;21.046;2024-02-14T13:40:41;11.60;99.90
11091;DHT22;5599;52.210;21.046;2024-02-14T13:43:11;11.60;1.00
11091;DHT22;5599;52.210;21.046;2024-02-14T13:45:45;11.70;99.90
11091;DHT22;5599;52.210;21.046;2024-02-14T13:48:16;11.80;99.90
11091;DHT22;5599;52.210;21.046;2024-02-14T13:50:45;11.80;99.90
11091;DHT22;5599;52.210;21.046;2024-02-14T13:53:17;11.80;99.90
11091;DHT22;5599;52.210;21.046;2024-02-14T13:55:46;11.70;99.90
11091;DHT22;5599;52.210;21.046;2024-02-14T13:58:16;11.70;1.00
11091;DHT22;5599;52.210;21.046;2024-02-14T14:00:45;11.80;1.00
11091;DHT22;5599;52.210;21.046;2024-02-14T14:03:15;11.70;99.90
11091;DHT22;5599;52.210;21.046;2024-02-14T14:05:43;11.70;99.90
11091;DHT22;5599;52.210;21.046;2024-02-14T14:08:13;11.60;99.90
11091;DHT22;5599;52.210;21.046;2024-02-14T14:10:42;11.50;16.40
11091;DHT22;5599;52.210;21.046;2024-02-14T14:13:12;11.50;99.90
11091;DHT22;5599;52.210;21.046;2024-02-14T14:15:43;11.40;99.90
11091;DHT22;5599;52.210;21.046;2024-02-14T14:18:12;11.40;99.90
11091;DHT22;5599;52.210;21.046;2024-02-14T14:20:42;11.40;99.90
11091;DHT22;5599;52.210;21.046;2024-02-14T14:23:11;11.40;99.90
11091;DHT22;5599;52.210;21.046;2024-02-14T14:25:40;11.50;99.90
11091;DHT22;5599;52.210;21.046;2024-02-14T14:28:09;11.50;99.90
11091;DHT22;5599;52.210;21.046;2024-02-14T14:30:38;11.50;99.90
11091;DHT22;5599;52.210;21.046;2024-02-14T14:33:09;11.40;99.90
11091;DHT22;5599;52.210;21.046;2024-02-14T14:35:41;11.20;99.90
11091;DHT22;5599;52.210;21.046;2024-02-14T14:38:10;11.20;1.00
11091;DHT22;5599;52.210;21.046;2024-02-14T14:40:39;11.20;60.10
11091;DHT22;5599;52.210;21.046;2024-02-14T14:43:08;11.30;99.90
11091;DHT22;5599;52.210;21.046;2024-02-14T14:45:38;11.30;99.90
11091;DHT22;5599;52.210;21.046;2024-02-14T14:48:11;11.30;1.00
11091;DHT22;5599;52.210;21.046;2024-02-14T14:50:41;11.20;1.00
11091;DHT22;5599;52.210;21.046;2024-02-14T14:53:10;11.10;99.90
11091;DHT22;5599;52.210;21.046;2024-02-14T14:55:50;11.00;99.90
11091;DHT22;5599;52.210;21.046;2024-02-14T14:58:20;10.90;99.90
11091;DHT22;5599;52.210;21.046;2024-02-14T15:00:54;10.80;1.00
11091;DHT22;5599;52.210;21.046;2024-02-14T15:03:25;10.70;99.90
11091;DHT22;5599;52.210;21.046;2024-02-14T15:05:54;10.50;99.90
11091;DHT22;5599;52.210;21.046;2024-02-14T15:08:25;10.50;1.00
11091;DHT22;5599;52.210;21.046;2024-02-14T15:10:56;10.40;99.90
11091;DHT22;5599;52.210;21.046;2024-02-14T15:13:25;10.40;99.90
11091;DHT22;5599;52.210;21.046;2024-02-14T15:18:26;10.40;99.90
11091;DHT22;5599;52.210;21.046;2024-02-14T15:20:55;10.30;99.90
11091;DHT22;5599;52.210;21.046;2024-02-14T15:23:25;10.20;46.10
11091;DHT22;5599;52.210;21.046;2024-02-14T15:25:54;10.10;92.80
11091;DHT22;5599;52.210;21.046;2024-02-14T15:28:30;10.10;99.90
11091;DHT22;5599;52.210;21.046;2024-02-14T15:30:59;9.90;22.70
11091;DHT22;5599;52.210;21.046;2024-02-14T15:33:47;9.80;99.90
11091;DHT22;5599;52.210;21.046;2024-02-14T15:36:18;9.80;1.00
11091;DHT22;5599;52.210;21.046;2024-02-14T15:38:47;9.80;99.90
11091;DHT22;5599;52.210;21.046;2024-02-14T15:41:16;9.70;1.00
11091;DHT22;5599;52.210;21.046;2024-02-14T15:43:45;9.70;99.90
11091;DHT22;5599;52.210;21.046;2024-02-14T15:46:15;9.70;99.90
11091;DHT22;5599;52.210;21.046;2024-02-14T15:48:45;9.60;16.00
11091;DHT22;5599;52.210;21.046;2024-02-14T15:51:15;9.70;99.90
11091;DHT22;5599;52.210;21.046;2024-02-14T15:53:44;9.60;99.90
11091;DHT22;5599;52.210;21.046;2024-02-14T15:56:14;9.60;1.00
11091;DHT22;5599;52.210;21.046;2024-02-14T15:58:43;9.70;1.00
11091;DHT22;5599;52.210;21.046;2024-02-14T16:01:12;9.60;1.00
11091;DHT22;5599;52.210;21.046;2024-02-14T16:03:42;9.50;99.90
11091;DHT22;5599;52.210;21.046;2024-02-14T16:06:10;9.40;99.90
11091;DHT22;5599;52.210;21.046;2024-02-14T16:08:41;9.40;1.00
11091;DHT22;5599;52.210;21.046;2024-02-14T16:11:10;9.40;1.00
11091;DHT22;5599;52.210;21.046;2024-02-14T16:13:39;9.30;1.00